Time;durP1;ratioP1;P1;durP2;ratioP2;P2;SDS_P1;SDS_P2;PMS_P1;PMS_P2;Temp;Humidity;BMP_temperature;BMP_pressure;BME280_temperature;BME280_humidity;BME280_pressure;Samples;Min_cycle;Max_cycle;Signal;HPM_P1;HPM_P2
2021/10/08 00:00:00;;;;;;;5.07;4.63;;;;;;;;;;5113753;28;20184;-82
2021/10/08 00:02:46;;;;;;;5.60;4.20;;;;;;;;;;5111602;28;20451;-81
2021/10/08 00:05:31;;;;;;;6.33;4.90;;;;;;;;;;5109932;28;20184;-81
2021/10/08 00:08:16;;;;;;;5.07;4.67;;;;;;;;;;5113637;28;20184;-82
2021/10/08 00:11:01;;;;;;;5.93;4.43;;;;;;;;;;5113599;28;20326;-82
2021/10/08 00:13:46;;;;;;;4.40;4.00;;;;;;;;;;5113782;28;20615;-82
2021/10/08 00:16:32;;;;;;;5.03;4.63;;;;;;;;;;5113237;28;20273;-81
2021/10/08 00:19:18;;;;;;;4.83;4.37;;;;;;;;;;5113786;28;20659;-81
2021/10/08 00:22:03;;;;;;;4.47;4.07;;;;;;;;;;5113626;28;20175;-82
2021/10/08 00:24:49;;;;;;;4.83;4.43;;;;;;;;;;5132658;27;20243;-81
2021/10/08 00:27:34;;;;;;;5.57;4.43;;;;;;;;;;5133798;27;20187;-81
2021/10/08 00:30:20;;;;;;;5.03;4.47;;;;;;;;;;5134004;27;20181;-82
2021/10/08 00:33:05;;;;;;;4.87;4.47;;;;;;;;;;5133905;27;20314;-81
2021/10/08 00:35:52;;;;;;;5.30;4.80;;;;;;;;;;5133885;27;20666;-82
2021/10/08 00:38:39;;;;;;;6.23;5.07;;;;;;;;;;5133445;27;20187;-82
2021/10/08 00:41:26;;;;;;;5.03;4.53;;;;;;;;;;5133725;27;20183;-82
2021/10/08 00:44:12;;;;;;;5.83;5.03;;;;;;;;;;5133385;27;20673;-82
2021/10/08 00:46:56;;;;;;;5.10;4.60;;;;;;;;;;5133375;27;20748;-82
2021/10/08 00:49:42;;;;;;;5.87;5.27;;;;;;;;;;5133406;27;20714;-82
2021/10/08 00:52:28;;;;;;;9.47;4.90;;;;;;;;;;5133519;27;20264;-82
2021/10/08 00:55:13;;;;;;;5.17;4.77;;;;;;;;;;5133322;27;20325;-82
2021/10/08 00:58:00;;;;;;;5.10;4.50;;;;;;;;;;5133844;27;20749;-83
2021/10/08 01:00:46;;;;;;;5.27;4.77;;;;;;;;;;5133226;27;20179;-82
2021/10/08 01:03:31;;;;;;;6.90;5.17;;;;;;;;;;5133446;27;20245;-82
2021/10/08 01:06:16;;;;;;;5.87;4.70;;;;;;;;;;5133120;27;20204;-82
2021/10/08 01:09:02;;;;;;;5.80;4.40;;;;;;;;;;5133254;27;20256;-82
2021/10/08 01:11:47;;;;;;;5.20;4.70;;;;;;;;;;5132991;27;20182;-81
2021/10/08 01:14:32;;;;;;;4.67;4.27;;;;;;;;;;5133062;27;20179;-82
2021/10/08 01:17:18;;;;;;;5.43;4.53;;;;;;;;;;5133128;27;20341;-81
2021/10/08 01:20:05;;;;;;;6.03;4.43;;;;;;;;;;5133095;27;20313;-81
2021/10/08 01:22:53;;;;;;;5.97;4.20;;;;;;;;;;5132757;27;20238;-81
2021/10/08 01:25:38;;;;;;;5.13;4.20;;;;;;;;;;5132832;27;20593;-82
2021/10/08 01:28:24;;;;;;;5.33;4.73;;;;;;;;;;5132947;27;20264;-81
2021/10/08 01:31:09;;;;;;;4.70;4.10;;;;;;;;;;5132885;27;20180;-81
2021/10/08 01:33:54;;;;;;;4.73;4.13;;;;;;;;;;5132768;27;20716;-81
2021/10/08 01:36:40;;;;;;;4.50;4.07;;;;;;;;;;5132135;27;20686;-82
2021/10/08 01:39:25;;;;;;;4.20;3.90;;;;;;;;;;5132671;27;20269;-82
2021/10/08 01:42:11;;;;;;;4.40;4.10;;;;;;;;;;5132651;27;20179;-82
2021/10/08 01:44:56;;;;;;;5.33;4.03;;;;;;;;;;5132660;28;20236;-82
2021/10/08 01:47:42;;;;;;;4.80;4.20;;;;;;;;;;5132477;28;20180;-82
2021/10/08 01:50:27;;;;;;;4.90;4.50;;;;;;;;;;5132497;28;20713;-82
2021/10/08 01:53:13;;;;;;;5.17;4.77;;;;;;;;;;5132390;28;20188;-82
2021/10/08 01:55:58;;;;;;;5.43;4.83;;;;;;;;;;5132526;28;20207;-83
2021/10/08 01:58:43;;;;;;;5.63;4.90;;;;;;;;;;5132557;28;20543;-81
2021/10/08 02:01:28;;;;;;;4.43;4.03;;;;;;;;;;5132686;28;20653;-81
2021/10/08 02:04:13;;;;;;;5.20;4.70;;;;;;;;;;5132737;28;20280;-82
2021/10/08 02:06:58;;;;;;;5.10;4.63;;;;;;;;;;5132508;28;20213;-82
2021/10/08 02:09:45;;;;;;;5.50;5.10;;;;;;;;;;5132497;28;20253;-82
2021/10/08 02:12:30;;;;;;;5.67;4.80;;;;;;;;;;5132243;28;20651;-82
2021/10/08 02:15:14;;;;;;;8.80;5.07;;;;;;;;;;5132416;28;20179;-82
2021/10/08 02:17:59;;;;;;;4.97;4.57;;;;;;;;;;5132471;28;20273;-82
2021/10/08 02:20:44;;;;;;;8.70;4.93;;;;;;;;;;5132352;28;20257;-82
2021/10/08 02:23:29;;;;;;;5.40;4.90;;;;;;;;;;5132334;28;20231;-82
2021/10/08 02:26:16;;;;;;;5.13;4.73;;;;;;;;;;5132347;28;20313;-82
2021/10/08 02:29:01;;;;;;;5.00;4.60;;;;;;;;;;5132242;28;20593;-82
2021/10/08 02:31:46;;;;;;;12.47;4.43;;;;;;;;;;5132330;28;20195;-82
2021/10/08 02:34:31;;;;;;;5.60;4.67;;;;;;;;;;5132211;28;20310;-82
2021/10/08 02:37:16;;;;;;;4.80;4.40;;;;;;;;;;5132010;28;20218;-82
2021/10/08 02:40:01;;;;;;;4.87;4.47;;;;;;;;;;5132224;28;20179;-82
2021/10/08 02:42:48;;;;;;;6.40;5.40;;;;;;;;;;5132349;28;20645;-82
2021/10/08 02:45:33;;;;;;;5.40;4.97;;;;;;;;;;5132190;28;20187;-82
2021/10/08 02:48:18;;;;;;;6.20;4.97;;;;;;;;;;5135035;27;20190;-82
2021/10/08 02:51:03;;;;;;;5.03;4.63;;;;;;;;;;5135811;27;20272;-82
2021/10/08 02:53:48;;;;;;;4.83;4.37;;;;;;;;;;5135615;27;20725;-82
2021/10/08 02:56:33;;;;;;;10.37;4.60;;;;;;;;;;5135791;27;20567;-82
2021/10/08 02:59:19;;;;;;;6.17;4.83;;;;;;;;;;5135842;27;20306;-82
2021/10/08 03:02:05;;;;;;;4.13;3.83;;;;;;;;;;5135745;27;20233;-82
2021/10/08 03:04:49;;;;;;;5.67;5.27;;;;;;;;;;5135985;27;20658;-82
2021/10/08 03:07:35;;;;;;;5.97;5.37;;;;;;;;;;5135290;27;20244;-82
2021/10/08 03:10:20;;;;;;;6.80;5.27;;;;;;;;;;5135503;27;20209;-83
2021/10/08 03:13:05;;;;;;;6.67;5.23;;;;;;;;;;5135472;27;20666;-82
2021/10/08 03:15:51;;;;;;;5.67;5.17;;;;;;;;;;5135109;27;20728;-82
2021/10/08 03:18:36;;;;;;;5.67;5.10;;;;;;;;;;5135232;27;20190;-82
2021/10/08 03:21:21;;;;;;;6.70;5.17;;;;;;;;;;5135221;27;20229;-81
2021/10/08 03:24:06;;;;;;;5.20;4.70;;;;;;;;;;5135023;27;20235;-81
2021/10/08 03:26:51;;;;;;;7.40;5.03;;;;;;;;;;5134894;27;20183;-82
2021/10/08 03:29:36;;;;;;;4.93;4.47;;;;;;;;;;5134961;27;20195;-81
2021/10/08 03:32:23;;;;;;;5.00;4.60;;;;;;;;;;5134889;27;20218;-81
2021/10/08 03:35:09;;;;;;;5.10;4.70;;;;;;;;;;5134927;27;20188;-81
2021/10/08 03:37:58;;;;;;;7.80;4.70;;;;;;;;;;5134993;27;20320;-82
2021/10/08 03:40:48;;;;;;;8.27;5.43;;;;;;;;;;5134921;27;20552;-83
2021/10/08 03:43:34;;;;;;;5.33;4.83;;;;;;;;;;5135045;27;20183;-83
2021/10/08 03:46:20;;;;;;;5.83;4.67;;;;;;;;;;5135446;27;20188;-86
2021/10/08 03:49:15;;;;;;;5.07;4.67;;;;;;;;;;5134707;27;20286;-84
2021/10/08 03:52:00;;;;;;;4.67;4.37;;;;;;;;;;5135018;27;20305;-84
2021/10/08 03:54:46;;;;;;;5.00;4.60;;;;;;;;;;5134807;27;20230;-83
2021/10/08 03:57:30;;;;;;;4.90;4.60;;;;;;;;;;5134888;27;20781;-83
2021/10/08 04:00:16;;;;;;;5.13;4.60;;;;;;;;;;5134075;27;20242;-83
2021/10/08 04:03:01;;;;;;;4.57;4.17;;;;;;;;;;5134111;27;20199;-82
2021/10/08 04:05:47;;;;;;;5.60;4.77;;;;;;;;;;5134505;27;20229;-83
2021/10/08 04:08:32;;;;;;;5.13;4.10;;;;;;;;;;5132485;27;20261;-85
2021/10/08 04:11:17;;;;;;;5.53;5.03;;;;;;;;;;5134206;27;20191;-85
2021/10/08 04:14:03;;;;;;;6.37;4.37;;;;;;;;;;5134456;27;20175;-84
2021/10/08 04:16:48;;;;;;;4.80;4.43;;;;;;;;;;5126081;27;20212;-84
2021/10/08 04:19:34;;;;;;;5.00;4.60;;;;;;;;;;5113712;28;20179;-87
2021/10/08 04:22:20;;;;;;;4.90;4.50;;;;;;;;;;5113585;28;20644;-84
2021/10/08 04:25:05;;;;;;;4.80;4.40;;;;;;;;;;5113228;28;20192;-84
2021/10/08 04:27:50;;;;;;;7.57;4.70;;;;;;;;;;5113459;28;20355;-85
2021/10/08 04:30:36;;;;;;;5.53;5.03;;;;;;;;;;5118010;27;20273;-85
2021/10/08 04:33:22;;;;;;;6.63;5.10;;;;;;;;;;5133897;27;20195;-82
2021/10/08 04:36:07;;;;;;;5.50;4.83;;;;;;;;;;5134044;27;20183;-86
2021/10/08 04:38:53;;;;;;;6.10;4.80;;;;;;;;;;5133953;27;20191;-84
2021/10/08 04:41:38;;;;;;;6.03;5.00;;;;;;;;;;5133778;27;20221;-84
2021/10/08 04:44:23;;;;;;;5.27;4.87;;;;;;;;;;5113199;28;20187;-84
2021/10/08 04:47:11;;;;;;;5.53;4.97;;;;;;;;;;5124693;27;20255;-84
2021/10/08 04:49:56;;;;;;;6.90;5.10;;;;;;;;;;5133113;27;20227;-85
2021/10/08 04:52:41;;;;;;;6.73;5.17;;;;;;;;;;5133652;27;20630;-85
2021/10/08 04:55:27;;;;;;;5.73;5.13;;;;;;;;;;5133606;27;20195;-85
2021/10/08 04:58:12;;;;;;;5.67;5.00;;;;;;;;;;5133344;27;20237;-82
2021/10/08 05:00:57;;;;;;;6.13;4.70;;;;;;;;;;5133407;27;20203;-85
2021/10/08 05:03:42;;;;;;;5.20;4.63;;;;;;;;;;5133359;27;20215;-84
2021/10/08 05:06:28;;;;;;;4.57;4.27;;;;;;;;;;5133315;27;20238;-86
2021/10/08 05:09:13;;;;;;;5.00;4.63;;;;;;;;;;5133270;27;20175;-85
2021/10/08 05:11:59;;;;;;;4.70;4.30;;;;;;;;;;5132339;27;20195;-85
2021/10/08 05:14:44;;;;;;;6.10;5.17;;;;;;;;;;5133320;27;20314;-87
2021/10/08 05:17:29;;;;;;;5.10;4.63;;;;;;;;;;5132619;27;20555;-86
2021/10/08 05:20:14;;;;;;;5.40;5.00;;;;;;;;;;5132737;27;20195;-86
2021/10/08 05:22:59;;;;;;;5.43;4.90;;;;;;;;;;5132623;27;20257;-86
2021/10/08 05:25:45;;;;;;;6.80;5.47;;;;;;;;;;5132931;27;20187;-88
2021/10/08 05:28:31;;;;;;;8.13;4.87;;;;;;;;;;5133432;27;20184;-86
2021/10/08 05:31:16;;;;;;;5.37;4.70;;;;;;;;;;5133077;27;20539;-87
2021/10/08 05:34:01;;;;;;;5.90;5.30;;;;;;;;;;5133112;27;20273;-87
2021/10/08 05:36:48;;;;;;;5.53;5.17;;;;;;;;;;5132896;27;20243;-87
2021/10/08 05:39:34;;;;;;;6.10;5.60;;;;;;;;;;5132943;27;20257;-87
2021/10/08 05:42:19;;;;;;;5.43;4.93;;;;;;;;;;5132845;27;20182;-87
2021/10/08 05:45:06;;;;;;;10.37;6.03;;;;;;;;;;5132665;27;20188;-86
2021/10/08 05:47:51;;;;;;;6.20;5.60;;;;;;;;;;5132956;28;20198;-87
2021/10/08 05:50:36;;;;;;;5.80;5.23;;;;;;;;;;5132545;28;20832;-87
2021/10/08 05:53:21;;;;;;;6.07;5.57;;;;;;;;;;5133022;28;20183;-86
2021/10/08 05:56:06;;;;;;;6.10;5.50;;;;;;;;;;5132997;28;20191;-89
2021/10/08 05:58:51;;;;;;;5.70;5.30;;;;;;;;;;5132473;28;20261;-87
2021/10/08 06:01:37;;;;;;;6.10;5.50;;;;;;;;;;5132656;28;20693;-87
2021/10/08 06:04:22;;;;;;;6.03;5.53;;;;;;;;;;5132976;28;20241;-88
2021/10/08 06:07:09;;;;;;;7.07;5.53;;;;;;;;;;5133012;28;20661;-88
2021/10/08 06:09:54;;;;;;;6.33;5.30;;;;;;;;;;5132700;28;20199;-88
2021/10/08 06:12:41;;;;;;;6.70;5.17;;;;;;;;;;5132406;28;20222;-87
2021/10/08 06:15:26;;;;;;;5.60;4.83;;;;;;;;;;5132654;28;20179;-88
2021/10/08 06:18:13;;;;;;;6.43;5.20;;;;;;;;;;5132689;28;20203;-88
2021/10/08 06:20:58;;;;;;;5.70;5.20;;;;;;;;;;5132910;28;20554;-88
2021/10/08 06:23:43;;;;;;;5.40;4.47;;;;;;;;;;5128604;27;20595;-87
2021/10/08 06:26:28;;;;;;;5.30;4.90;;;;;;;;;;5115866;28;20554;-88
2021/10/08 06:29:13;;;;;;;5.87;5.20;;;;;;;;;;5115953;28;20250;-86
2021/10/08 06:31:58;;;;;;;7.90;4.87;;;;;;;;;;5116154;28;20222;-88
2021/10/08 06:34:44;;;;;;;6.10;5.50;;;;;;;;;;5115696;28;20196;-88
2021/10/08 06:37:29;;;;;;;5.57;4.83;;;;;;;;;;5115443;28;20216;-88
2021/10/08 06:40:14;;;;;;;5.70;5.20;;;;;;;;;;5116292;28;20230;-89
2021/10/08 06:42:59;;;;;;;5.57;5.07;;;;;;;;;;5115850;28;20319;-89
2021/10/08 06:45:44;;;;;;;5.23;4.83;;;;;;;;;;5115766;28;20181;-87
2021/10/08 06:48:29;;;;;;;5.30;4.90;;;;;;;;;;5115670;28;20322;-89
2021/10/08 06:51:15;;;;;;;5.50;5.00;;;;;;;;;;5115394;28;20224;-88
2021/10/08 06:54:00;;;;;;;5.50;5.00;;;;;;;;;;5115797;28;20667;-87
2021/10/08 06:56:46;;;;;;;6.50;5.07;;;;;;;;;;5115522;28;20200;-88
2021/10/08 06:59:30;;;;;;;6.00;5.40;;;;;;;;;;5115338;28;20204;-89
2021/10/08 07:02:16;;;;;;;5.60;4.87;;;;;;;;;;5115688;28;20202;-88
2021/10/08 07:05:00;;;;;;;6.67;5.23;;;;;;;;;;5115148;28;20270;-87
2021/10/08 07:07:47;;;;;;;6.97;4.97;;;;;;;;;;5115421;28;20176;-88
2021/10/08 07:10:32;;;;;;;5.83;5.23;;;;;;;;;;5115300;28;20185;-88
2021/10/08 07:13:17;;;;;;;6.53;5.70;;;;;;;;;;5115373;28;20188;-88
2021/10/08 07:16:02;;;;;;;6.87;5.33;;;;;;;;;;5115113;28;20230;-89
2021/10/08 07:18:53;;;;;;;5.73;5.13;;;;;;;;;;5115146;28;20662;-89
2021/10/08 07:21:39;;;;;;;6.67;5.60;;;;;;;;;;5114896;28;20188;-87
2021/10/08 07:24:26;;;;;;;6.53;5.93;;;;;;;;;;5128574;27;20238;-89
2021/10/08 07:27:11;;;;;;;6.63;4.90;;;;;;;;;;5134866;27;20187;-88
2021/10/08 07:29:56;;;;;;;6.97;4.77;;;;;;;;;;5135731;27;20183;-88
2021/10/08 07:32:41;;;;;;;5.00;4.50;;;;;;;;;;5135471;27;20269;-88
2021/10/08 07:35:26;;;;;;;5.87;4.97;;;;;;;;;;5134629;27;20183;-88
2021/10/08 07:38:12;;;;;;;5.57;4.77;;;;;;;;;;5135445;27;20702;-88
2021/10/08 07:40:58;;;;;;;5.17;4.47;;;;;;;;;;5135137;27;20195;-88
2021/10/08 07:43:43;;;;;;;5.80;4.80;;;;;;;;;;5135252;27;20176;-88
2021/10/08 07:46:28;;;;;;;5.10;4.40;;;;;;;;;;5135156;27;20186;-88
2021/10/08 07:49:13;;;;;;;6.03;4.43;;;;;;;;;;5135225;27;20183;-88
2021/10/08 07:51:58;;;;;;;6.60;5.00;;;;;;;;;;5135197;27;20310;-89
2021/10/08 07:54:43;;;;;;;5.20;4.50;;;;;;;;;;5135054;27;20187;-88
2021/10/08 07:57:30;;;;;;;4.70;4.27;;;;;;;;;;5134740;27;20195;-87
2021/10/08 08:00:15;;;;;;;6.17;4.70;;;;;;;;;;5134620;27;20203;-88
2021/10/08 08:03:00;;;;;;;4.63;4.00;;;;;;;;;;5134708;27;20325;-88
2021/10/08 08:05:45;;;;;;;7.30;4.70;;;;;;;;;;5134487;27;20310;-87
2021/10/08 08:08:30;;;;;;;4.73;4.37;;;;;;;;;;5134669;27;20211;-88
2021/10/08 08:11:15;;;;;;;7.13;4.43;;;;;;;;;;5134421;27;20206;-88
2021/10/08 08:14:01;;;;;;;8.00;4.40;;;;;;;;;;5134484;27;20719;-88
2021/10/08 08:16:46;;;;;;;7.13;4.20;;;;;;;;;;5134340;27;20187;-87
2021/10/08 08:19:31;;;;;;;4.93;4.03;;;;;;;;;;5134354;27;20252;-87
2021/10/08 08:22:16;;;;;;;6.77;4.07;;;;;;;;;;5134604;27;20654;-88
2021/10/08 08:25:02;;;;;;;4.50;4.20;;;;;;;;;;5133970;27;20224;-88
2021/10/08 08:27:47;;;;;;;7.50;4.90;;;;;;;;;;5134124;27;20196;-87
2021/10/08 08:30:37;;;;;;;4.53;4.07;;;;;;;;;;5134340;27;20192;-88
2021/10/08 08:33:22;;;;;;;4.47;4.07;;;;;;;;;;5134402;27;20306;-88
2021/10/08 08:36:07;;;;;;;9.43;4.33;;;;;;;;;;5134118;27;20179;-88
2021/10/08 08:38:53;;;;;;;7.33;4.67;;;;;;;;;;5133908;27;20345;-87
2021/10/08 08:41:41;;;;;;;8.73;4.93;;;;;;;;;;5134259;27;20187;-86
2021/10/08 08:44:26;;;;;;;6.13;4.37;;;;;;;;;;5134111;27;20204;-87
2021/10/08 08:47:15;;;;;;;10.47;4.63;;;;;;;;;;5134027;27;20544;-86
2021/10/08 08:50:01;;;;;;;5.43;4.47;;;;;;;;;;5133894;27;20223;-85
2021/10/08 08:52:46;;;;;;;5.17;4.60;;;;;;;;;;5134013;27;20671;-87
2021/10/08 08:55:38;;;;;;;8.20;5.03;;;;;;;;;;5133744;27;20192;-87
2021/10/08 08:58:24;;;;;;;6.60;4.73;;;;;;;;;;5133973;27;20288;-85
2021/10/08 09:01:09;;;;;;;9.40;5.10;;;;;;;;;;5133626;27;20191;-86
2021/10/08 09:04:06;;;;;;;6.20;4.13;;;;;;;;;;5133996;27;20241;-85
2021/10/08 09:06:51;;;;;;;6.00;4.80;;;;;;;;;;5133318;27;20176;-84
2021/10/08 09:09:36;;;;;;;8.73;4.43;;;;;;;;;;5133159;27;20540;-85
2021/10/08 09:12:22;;;;;;;7.27;4.67;;;;;;;;;;5133793;27;20580;-85
2021/10/08 09:15:08;;;;;;;4.87;4.47;;;;;;;;;;5133459;27;20194;-84
2021/10/08 09:18:05;;;;;;;4.40;4.10;;;;;;;;;;5133431;27;20183;-85
2021/10/08 09:21:01;;;;;;;5.77;4.53;;;;;;;;;;5133741;27;20179;-86
2021/10/08 09:23:48;;;;;;;6.77;4.80;;;;;;;;;;5132847;27;20247;-87
2021/10/08 09:26:33;;;;;;;5.50;4.10;;;;;;;;;;5133778;27;20245;-87
2021/10/08 09:29:18;;;;;;;5.13;3.97;;;;;;;;;;5133469;27;20547;-85
2021/10/08 09:32:04;;;;;;;4.40;4.00;;;;;;;;;;5133409;27;20188;-88
2021/10/08 09:35:02;;;;;;;7.37;4.30;;;;;;;;;;5133370;27;20190;-86
2021/10/08 09:37:57;;;;;;;7.70;4.40;;;;;;;;;;5133085;27;20184;-85
2021/10/08 09:40:46;;;;;;;7.13;3.90;;;;;;;;;;5133304;27;20223;-84
2021/10/08 09:43:35;;;;;;;4.93;4.33;;;;;;;;;;5133166;27;20520;-84
2021/10/08 09:46:21;;;;;;;4.37;4.03;;;;;;;;;;5133247;27;20660;-84
2021/10/08 09:49:06;;;;;;;4.03;3.70;;;;;;;;;;5133038;28;20179;-85
2021/10/08 09:51:51;;;;;;;4.60;4.20;;;;;;;;;;5133106;28;20272;-85
2021/10/08 09:54:49;;;;;;;4.30;3.90;;;;;;;;;;5132837;28;20194;-84
2021/10/08 09:57:49;;;;;;;9.33;4.33;;;;;;;;;;5135195;27;20187;-83
2021/10/08 10:00:35;;;;;;;6.40;3.87;;;;;;;;;;5137317;27;20265;-85
2021/10/08 10:03:21;;;;;;;6.47;4.07;;;;;;;;;;5137302;27;20284;-85
2021/10/08 10:06:06;;;;;;;5.10;4.10;;;;;;;;;;5136796;27;20260;-86
2021/10/08 10:08:52;;;;;;;5.70;4.03;;;;;;;;;;5136704;27;20658;-86
2021/10/08 10:11:39;;;;;;;8.43;4.00;;;;;;;;;;5136889;27;20192;-84
2021/10/08 10:14:25;;;;;;;10.23;4.00;;;;;;;;;;5136936;27;20678;-85
2021/10/08 10:17:10;;;;;;;3.97;3.20;;;;;;;;;;5136664;27;20670;-82
2021/10/08 10:19:55;;;;;;;4.17;3.10;;;;;;;;;;5136829;27;20215;-80
2021/10/08 10:22:41;;;;;;;2.87;2.70;;;;;;;;;;5136462;27;20183;-84
2021/10/08 10:25:27;;;;;;;6.17;2.73;;;;;;;;;;5136678;27;20726;-80
2021/10/08 10:28:14;;;;;;;4.20;2.87;;;;;;;;;;5136116;27;20708;-83
2021/10/08 10:30:59;;;;;;;4.50;2.60;;;;;;;;;;5136200;27;20183;-81
2021/10/08 10:33:45;;;;;;;5.60;3.70;;;;;;;;;;5136396;27;20276;-82
2021/10/08 10:36:31;;;;;;;5.53;3.03;;;;;;;;;;5135918;27;20607;-82
2021/10/08 10:39:20;;;;;;;4.43;4.03;;;;;;;;;;5135873;27;20203;-81
2021/10/08 10:42:15;;;;;;;7.77;3.97;;;;;;;;;;5136108;27;20188;-82
2021/10/08 10:45:14;;;;;;;5.30;4.23;;;;;;;;;;5130429;27;20197;-82
2021/10/08 10:48:17;;;;;;;5.47;4.50;;;;;;;;;;5115300;28;20207;-82
2021/10/08 10:51:14;;;;;;;6.10;4.70;;;;;;;;;;5115251;28;20220;-84
2021/10/08 10:53:59;;;;;;;4.97;4.47;;;;;;;;;;5115422;28;20184;-83
2021/10/08 10:56:44;;;;;;;6.07;4.63;;;;;;;;;;5115260;28;20192;-82
2021/10/08 10:59:30;;;;;;;6.20;5.23;;;;;;;;;;5114921;28;20212;-84
2021/10/08 11:02:26;;;;;;;6.17;4.57;;;;;;;;;;5114986;28;20192;-80
2021/10/08 11:05:19;;;;;;;4.80;4.40;;;;;;;;;;5114855;28;20193;-82
2021/10/08 11:08:05;;;;;;;5.17;4.67;;;;;;;;;;5114393;28;20646;-79
2021/10/08 11:11:05;;;;;;;5.13;4.70;;;;;;;;;;5114846;28;20185;-81
2021/10/08 11:13:50;;;;;;;5.27;4.87;;;;;;;;;;5114782;28;20184;-84
2021/10/08 11:16:35;;;;;;;5.57;5.07;;;;;;;;;;5114636;28;20180;-83
2021/10/08 11:19:41;;;;;;;5.20;4.70;;;;;;;;;;5132075;27;20207;-80
2021/10/08 11:22:41;;;;;;;5.77;5.30;;;;;;;;;;5135337;27;20587;-81
2021/10/08 11:25:27;;;;;;;5.23;4.83;;;;;;;;;;5135199;27;20191;-83
2021/10/08 11:28:14;;;;;;;6.43;5.90;;;;;;;;;;5114789;28;20262;-82
2021/10/08 11:31:00;;;;;;;5.53;5.03;;;;;;;;;;5115141;28;20258;-81
2021/10/08 11:33:46;;;;;;;5.40;4.87;;;;;;;;;;5122685;27;20593;-80
2021/10/08 11:36:34;;;;;;;5.30;4.87;;;;;;;;;;5131241;27;20183;-82
2021/10/08 11:39:19;;;;;;;4.97;4.67;;;;;;;;;;5135097;27;20234;-82
2021/10/08 11:42:09;;;;;;;5.33;4.83;;;;;;;;;;5135242;27;20184;-82
2021/10/08 11:45:04;;;;;;;6.83;4.90;;;;;;;;;;5135088;27;20547;-83
2021/10/08 11:47:51;;;;;;;5.43;4.73;;;;;;;;;;5134749;27;20600;-81
2021/10/08 11:50:51;;;;;;;8.50;4.70;;;;;;;;;;5134747;27;20214;-81
2021/10/08 11:53:41;;;;;;;5.33;4.83;;;;;;;;;;5133917;27;20179;-82
2021/10/08 11:56:28;;;;;;;4.90;4.43;;;;;;;;;;5134378;27;20674;-82
2021/10/08 11:59:16;;;;;;;5.87;4.63;;;;;;;;;;5133641;27;20535;-82
2021/10/08 12:02:12;;;;;;;4.93;4.53;;;;;;;;;;5134210;27;20188;-83
2021/10/08 12:04:58;;;;;;;4.20;3.90;;;;;;;;;;5114017;28;20676;-82
2021/10/08 12:07:52;;;;;;;4.70;4.30;;;;;;;;;;5114042;28;20258;-81
2021/10/08 12:10:39;;;;;;;5.07;4.57;;;;;;;;;;5113483;28;20180;-84
2021/10/08 12:13:51;;;;;;;5.73;4.10;;;;;;;;;;5113412;28;20552;-82
2021/10/08 12:16:37;;;;;;;4.20;3.90;;;;;;;;;;5073025;28;20208;-80
2021/10/08 12:19:29;;;;;;;4.93;4.53;;;;;;;;;;5112838;28;20192;-82
2021/10/08 12:22:24;;;;;;;5.13;4.43;;;;;;;;;;5112997;28;20246;-81
2021/10/08 12:25:09;;;;;;;4.70;4.30;;;;;;;;;;5113086;28;20236;-84
2021/10/08 12:27:56;;;;;;;4.93;4.53;;;;;;;;;;5113706;28;20183;-81
2021/10/08 12:30:51;;;;;;;4.32;4.03;;;;;;;;;;5113612;28;20751;-80
2021/10/08 12:33:37;;;;;;;6.68;4.40;;;;;;;;;;5113509;28;20269;-83
2021/10/08 12:36:24;;;;;;;5.67;5.17;;;;;;;;;;5113649;28;20771;-83
2021/10/08 12:39:11;;;;;;;5.90;4.45;;;;;;;;;;5113303;28;20652;-87
2021/10/08 12:41:58;;;;;;;4.38;4.13;;;;;;;;;;5113263;28;20188;-87
2021/10/08 12:44:49;;;;;;;5.05;4.22;;;;;;;;;;5113068;28;20671;-85
2021/10/08 12:47:38;;;;;;;6.13;4.80;;;;;;;;;;5113382;28;20188;-86
2021/10/08 12:50:23;;;;;;;5.40;4.90;;;;;;;;;;5113203;28;20295;-85
2021/10/08 12:53:16;;;;;;;5.28;4.78;;;;;;;;;;5113273;28;20214;-85
2021/10/08 12:56:16;;;;;;;5.28;4.72;;;;;;;;;;5112937;28;20200;-83
2021/10/08 12:59:01;;;;;;;5.25;4.75;;;;;;;;;;5113029;28;20542;-83
2021/10/08 13:01:57;;;;;;;5.30;4.90;;;;;;;;;;5113021;28;20212;-83
2021/10/08 13:04:42;;;;;;;5.82;4.90;;;;;;;;;;5113220;28;20200;-82
2021/10/08 13:07:27;;;;;;;5.07;4.68;;;;;;;;;;5112947;28;20179;-83
2021/10/08 13:10:20;;;;;;;5.63;5.10;;;;;;;;;;5113054;28;20184;-85
2021/10/08 13:13:05;;;;;;;5.65;5.15;;;;;;;;;;5112573;28;20648;-84
2021/10/08 13:15:50;;;;;;;5.65;5.25;;;;;;;;;;5112755;28;20634;-84
2021/10/08 13:18:41;;;;;;;6.85;4.93;;;;;;;;;;5112791;28;20727;-84
2021/10/08 13:21:26;;;;;;;5.68;5.18;;;;;;;;;;5112530;28;20204;-85
2021/10/08 13:24:11;;;;;;;8.43;6.38;;;;;;;;;;5112059;28;20236;-83
2021/10/08 13:26:58;;;;;;;5.57;5.10;;;;;;;;;;5112803;28;20221;-85
2021/10/08 13:29:43;;;;;;;5.03;4.63;;;;;;;;;;5112316;28;20287;-86
2021/10/08 13:32:28;;;;;;;5.45;4.78;;;;;;;;;;5111722;28;20270;-85
2021/10/08 13:35:15;;;;;;;5.28;4.88;;;;;;;;;;5112362;28;20241;-83
2021/10/08 13:38:00;;;;;;;5.70;5.20;;;;;;;;;;5112534;28;20189;-87
2021/10/08 13:40:45;;;;;;;5.22;4.80;;;;;;;;;;5112060;28;20208;-84
2021/10/08 13:43:30;;;;;;;5.35;4.70;;;;;;;;;;5112262;28;20230;-84
2021/10/08 13:46:16;;;;;;;5.50;5.00;;;;;;;;;;5112292;28;20650;-84
2021/10/08 13:49:01;;;;;;;4.90;4.50;;;;;;;;;;5112254;28;20179;-84
2021/10/08 13:51:47;;;;;;;5.85;5.38;;;;;;;;;;5112073;28;20219;-86
2021/10/08 13:54:32;;;;;;;7.30;6.55;;;;;;;;;;5112156;28;20287;-84
2021/10/08 13:57:17;;;;;;;5.32;4.82;;;;;;;;;;5127422;28;20704;-85
2021/10/08 14:00:04;;;;;;;5.55;5.07;;;;;;;;;;5132678;28;20221;-84
2021/10/08 14:02:53;;;;;;;5.38;4.88;;;;;;;;;;5132827;28;20280;-84
2021/10/08 14:05:46;;;;;;;5.10;4.70;;;;;;;;;;5111585;28;20753;-85
2021/10/08 14:08:36;;;;;;;5.75;4.75;;;;;;;;;;5111655;28;20315;-85
2021/10/08 14:11:21;;;;;;;5.10;4.63;;;;;;;;;;5114614;28;20209;-86
2021/10/08 14:14:06;;;;;;;5.47;5.07;;;;;;;;;;5132906;28;20662;-88
2021/10/08 14:16:51;;;;;;;5.47;4.97;;;;;;;;;;5132880;28;20312;-83
2021/10/08 14:19:36;;;;;;;4.93;4.63;;;;;;;;;;5132585;28;20184;-84
2021/10/08 14:22:21;;;;;;;7.38;5.07;;;;;;;;;;5132701;28;20556;-82
2021/10/08 14:25:10;;;;;;;5.07;4.68;;;;;;;;;;5132307;28;20269;-84
2021/10/08 14:27:55;;;;;;;4.90;4.60;;;;;;;;;;5132538;28;20391;-83
2021/10/08 14:30:39;;;;;;;7.65;5.18;;;;;;;;;;5126358;28;20188;-84
2021/10/08 14:33:24;;;;;;;4.95;4.60;;;;;;;;;;5112098;28;20200;-84
2021/10/08 14:36:10;;;;;;;5.65;5.25;;;;;;;;;;5111704;28;20664;-83
2021/10/08 14:38:55;;;;;;;5.80;5.20;;;;;;;;;;5111859;28;20181;-84
2021/10/08 14:41:42;;;;;;;5.47;5.07;;;;;;;;;;5111584;28;20212;-83
2021/10/08 14:44:27;;;;;;;5.97;5.00;;;;;;;;;;5114829;28;20184;-84
2021/10/08 14:47:13;;;;;;;5.93;5.40;;;;;;;;;;5115681;28;20188;-83
2021/10/08 14:49:58;;;;;;;5.63;5.20;;;;;;;;;;5115459;28;20676;-84
2021/10/08 14:52:43;;;;;;;5.57;5.07;;;;;;;;;;5115780;28;20180;-84
2021/10/08 14:55:45;;;;;;;5.55;5.15;;;;;;;;;;5115309;28;20203;-85
2021/10/08 14:58:31;;;;;;;5.50;5.00;;;;;;;;;;5115360;28;20188;-86
2021/10/08 15:01:20;;;;;;;5.78;5.28;;;;;;;;;;5127756;27;20690;-84
2021/10/08 15:04:05;;;;;;;6.70;5.07;;;;;;;;;;5136236;27;20281;-86
2021/10/08 15:06:50;;;;;;;5.38;4.97;;;;;;;;;;5135622;27;20187;-87
2021/10/08 15:09:35;;;;;;;5.65;5.20;;;;;;;;;;5135459;27;20205;-84
2021/10/08 15:12:20;;;;;;;5.78;5.28;;;;;;;;;;5135984;27;20256;-83
2021/10/08 15:15:07;;;;;;;4.80;4.50;;;;;;;;;;5135351;27;20175;-84
2021/10/08 15:17:52;;;;;;;4.93;4.53;;;;;;;;;;5113730;28;20315;-88
2021/10/08 15:20:37;;;;;;;5.15;4.75;;;;;;;;;;5114474;28;20226;-83
2021/10/08 15:23:22;;;;;;;5.63;5.20;;;;;;;;;;5114292;28;20714;-85
2021/10/08 15:26:08;;;;;;;5.57;5.18;;;;;;;;;;5114307;28;20750;-90
2021/10/08 15:28:52;;;;;;;6.72;5.55;;;;;;;;;;5114838;27;20342;-84
2021/10/08 15:31:39;;;;;;;6.88;4.97;;;;;;;;;;5133766;27;20541;-84
2021/10/08 15:34:24;;;;;;;5.55;5.15;;;;;;;;;;5134311;27;20673;-84
2021/10/08 15:37:09;;;;;;;5.97;4.88;;;;;;;;;;5130447;27;20192;-84
2021/10/08 15:39:56;;;;;;;6.97;5.88;;;;;;;;;;5114888;28;20231;-84
2021/10/08 15:42:45;;;;;;;5.78;5.38;;;;;;;;;;5113894;28;20745;-84
2021/10/08 15:45:30;;;;;;;6.07;5.47;;;;;;;;;;5113871;28;20192;-84
2021/10/08 15:48:17;;;;;;;6.65;5.65;;;;;;;;;;5113615;28;20181;-85
2021/10/08 15:51:03;;;;;;;6.20;5.70;;;;;;;;;;5113459;28;20224;-84
2021/10/08 15:53:48;;;;;;;6.45;5.85;;;;;;;;;;5113665;28;20188;-84
2021/10/08 15:56:33;;;;;;;6.32;5.80;;;;;;;;;;5113049;28;20230;-85
2021/10/08 15:59:19;;;;;;;7.57;6.18;;;;;;;;;;5113668;28;20183;-84
2021/10/08 16:02:04;;;;;;;6.20;5.70;;;;;;;;;;5113249;28;20216;-84
2021/10/08 16:04:53;;;;;;;6.82;5.82;;;;;;;;;;5113926;28;20200;-84
2021/10/08 16:07:39;;;;;;;6.60;5.95;;;;;;;;;;5113432;28;20184;-83
2021/10/08 16:10:24;;;;;;;6.65;6.10;;;;;;;;;;5113552;28;20184;-85
2021/10/08 16:13:09;;;;;;;6.05;5.55;;;;;;;;;;5113287;28;20184;-84
2021/10/08 16:15:54;;;;;;;6.30;5.80;;;;;;;;;;5113720;28;20649;-83
2021/10/08 16:18:46;;;;;;;7.20;6.13;;;;;;;;;;5113148;28;20188;-83
2021/10/08 16:21:33;;;;;;;7.78;6.55;;;;;;;;;;5112871;28;20289;-82
2021/10/08 16:24:18;;;;;;;8.02;6.78;;;;;;;;;;5107215;28;20701;-82
2021/10/08 16:27:03;;;;;;;7.30;6.70;;;;;;;;;;5113259;28;20674;-82
2021/10/08 16:29:48;;;;;;;7.05;6.43;;;;;;;;;;5112856;28;20184;-82
2021/10/08 16:32:35;;;;;;;8.30;7.47;;;;;;;;;;5112546;28;20602;-83
2021/10/08 16:35:22;;;;;;;8.68;7.93;;;;;;;;;;5112801;28;20185;-82
2021/10/08 16:38:08;;;;;;;7.78;7.07;;;;;;;;;;5112603;28;20189;-82